Have a Safe July 4th! 

Flight Track Log - Related Links

Times and Time Zones

All times are in EDT time to prevent confusion due to time zone crossing. See the RPA3253 flight status page for this flight to view local times or setup timezone preferences in your user account.

Time Position Orientation Groundspeed Altitude Reporting Facility
EDT Latitude Longitude Course Direction KTS MPH feet Rate Location/Type
Fri 07:29:43 PM 42.7483 -73.8339 169° South 144 166 1,300  Level Boston Center
Fri 07:30:38 PM 42.7475 -73.8906 269° West 186 214 2,400 1,882 Climbing Boston Center
Fri 07:32:00 PM 42.4501 -74.1262 180° South  Level Estimated
Fri 07:32:16 PM 42.8339 -73.9831 322° Northwest 270 311 6,100  Level Boston Center
Fri 07:33:00 PM 42.3752 -74.2068 170° South  Level Estimated
Fri 07:33:16 PM 42.8936 -74.0272 332° Northwest 262 302 9,300  Level Boston Center
Fri 07:34:00 PM 42.3003 -74.2872 180° South  Level Estimated
Fri 07:34:16 PM 42.9300 -74.1047 303° West 244 281 10,900  Level Boston Center
Fri 07:35:00 PM 42.2253 -74.3674 169° South  Level Estimated
Fri 07:35:16 PM 42.8564 -74.1508 205° Southwest 172 198 12,800  Level Boston Center
Fri 07:36:16 PM 42.7753 -74.1486 179° South 272 313 15,200 2,250 Climbing Boston Center
Fri 07:37:16 PM 42.6756 -74.1317 173° South 334 384 17,300 2,200 Climbing Boston Center
Fri 07:38:16 PM 42.5844 -74.0897 161° South 350 403 19,600 1,900 Climbing Boston Center
Fri 07:39:16 PM 42.4842 -74.0897 180° South 350 403 21,100 1,650 Climbing Boston Center
Fri 07:40:16 PM 42.3800 -74.0928 181° South 361 415 22,900 1,600 Climbing Boston Center
Fri 07:41:16 PM 42.2797 -74.1153 189° South 366 421 24,300 1,300 Climbing Boston Center
Fri 07:42:16 PM 42.1731 -74.1378 189° South 371 427 25,500 1,200 Climbing Boston Center
Fri 07:43:16 PM 42.0644 -74.1572 188° South 384 442 26,700 1,066 Climbing Boston Center
Fri 07:44:48 PM 41.9075 -74.1850 188° South 397 457 28,200 1,000 Climbing New York Center
Fri 07:45:46 PM 41.7925 -74.2042 187° South 408 470 29,200 1,017 Climbing New York Center
Fri 07:46:46 PM 41.6775 -74.2286 189° South 414 476 30,200 984 Climbing New York Center
Fri 07:47:48 PM 41.5622 -74.2506 188° South 419 482 31,200 900 Climbing New York Center
Fri 07:48:46 PM 41.4450 -74.2750 189° South 425 489 32,000 915 Climbing New York Center
Fri 07:49:46 PM 41.3108 -74.2983 187° South 439 505 33,000 885 Climbing New York Center
Fri 07:50:48 PM 41.1936 -74.3197 188° South 439 505 33,800 787 Climbing New York Center
Fri 07:51:48 PM 41.0936 -74.3914 208° Southwest 420 483 34,600 763 Climbing New York Center
Fri 07:52:46 PM 41.0011 -74.4828 217° Southwest 413 475 35,300 712 Climbing New York Center
Fri 07:53:46 PM 40.9108 -74.5711 216° Southwest 418 481 36,000 350 Climbing New York Center
Fri 07:54:46 PM 40.8144 -74.6564 214° Southwest 418 481 36,000  Level New York Center
Fri 07:55:46 PM 40.7139 -74.7300 209° Southwest 418 481 36,000  Level New York Center
Fri 07:56:47 PM 40.6136 -74.8033 209° Southwest 418 481 36,000  Level New York Center
Fri 07:57:47 PM 40.5131 -74.8794 210° Southwest 424 488 36,000  Level New York Center
Fri 07:58:48 PM 40.4103 -74.9550 209° Southwest 429 494 36,000  Level New York Center
Fri 07:59:46 PM 40.3056 -75.0303 209° Southwest 434 499 36,000  Level New York Center
Fri 08:00:47 PM 40.2025 -75.1083 210° Southwest 434 499 36,000  Level New York Center
Fri 08:01:47 PM 40.0997 -75.1833 209° Southwest 434 499 36,000  Level New York Center
Fri 08:02:48 PM 39.9947 -75.2633 210° Southwest 434 499 36,000  Level New York Center
Fri 08:04:21 PM 39.8947 -75.4589 236° Southwest 394 453 36,000  Level Washington Center
Fri 08:05:19 PM 39.8281 -75.5806 235° Southwest 413 475 36,000  Level Washington Center
Fri 08:06:19 PM 39.7511 -75.6967 229° Southwest 432 497 36,000  Level Washington Center
Fri 08:07:21 PM 39.6697 -75.8125 228° Southwest 437 503 36,000  Level Washington Center
Fri 08:08:19 PM 39.5881 -75.9281 227° Southwest 437 503 36,000  Level Washington Center
Fri 08:09:19 PM 39.5106 -76.0461 230° Southwest 437 503 36,000  Level Washington Center
Fri 08:10:20 PM 39.4308 -76.1611 228° Southwest 437 503 36,000  Level Washington Center
Fri 08:11:20 PM 39.3469 -76.2758 227° Southwest 437 503 36,000  Level Washington Center
Fri 08:12:19 PM 39.2650 -76.3931 228° Southwest 437 503 36,000  Level Washington Center
Fri 08:13:19 PM 39.1872 -76.5075 229° Southwest 437 503 36,000  Level Washington Center
Fri 08:14:20 PM 39.1050 -76.6242 228° Southwest 437 503 36,000  Level Washington Center
Fri 08:15:19 PM 39.0353 -76.7219 227° Southwest 437 503 36,000  Level Washington Center
Fri 08:16:19 PM 38.9528 -76.8408 228° Southwest 437 503 36,000  Level Washington Center
Fri 08:17:20 PM 38.8744 -76.9542 228° Southwest 437 503 36,000  Level Washington Center
Fri 08:18:21 PM 38.7939 -77.0644 227° Southwest 437 503 36,000  Level Washington Center
Fri 08:19:21 PM 38.7133 -77.1800 228° Southwest 437 503 36,000  Level Washington Center
Fri 08:20:22 PM 38.6344 -77.2925 228° Southwest 437 503 36,000  Level Washington Center
Fri 08:21:19 PM 38.5536 -77.4075 228° Southwest 437 503 36,000  Level Washington Center
Fri 08:22:20 PM 38.4747 -77.5250 229° Southwest 437 503 36,000  Level Washington Center
Fri 08:23:21 PM 38.3936 -77.6394 228° Southwest 437 503 36,000  Level Washington Center
Fri 08:24:21 PM 38.3186 -77.7539 230° Southwest 437 503 36,000  Level Washington Center
Fri 08:25:19 PM 38.2372 -77.8653 227° Southwest 437 503 36,000  Level Washington Center
Fri 08:26:22 PM 38.1578 -77.9817 229° Southwest 437 503 36,000  Level Washington Center
Fri 08:27:19 PM 38.0783 -78.0925 228° Southwest 437 503 36,000  Level Washington Center
Fri 08:28:21 PM 37.9967 -78.2136 229° Southwest 432 497 36,000  Level Washington Center
Fri 08:29:21 PM 37.9256 -78.3164 229° Southwest 425 489 36,000  Level Washington Center
Fri 08:30:19 PM 37.8458 -78.4239 227° Southwest 425 489 36,000  Level Washington Center
Fri 08:31:21 PM 37.7658 -78.5367 228° Southwest 430 495 36,000  Level Washington Center
Fri 08:32:19 PM 37.6775 -78.6564 227° Southwest 425 489 36,000  Level Washington Center
Fri 08:33:20 PM 37.6364 -78.7886 249° West 409 471 36,000 -585 Level Washington Center
Fri 08:34:22 PM 37.6200 -78.9322 262° West 403 464 34,800 -1,008 Descending Washington Center
Fri 08:35:19 PM 37.5972 -79.0728 258° West 410 472 34,000 -410 Descending Washington Center
Fri 08:36:19 PM 37.5067 -79.1733 221° Southwest 407 468 34,000  Level Washington Center
Fri 08:37:20 PM 37.4106 -79.2444 210° Southwest 421 484 34,000  Level Washington Center
Fri 08:38:20 PM 37.3014 -79.3308 212° Southwest 445 512 34,000  Level Washington Center
Fri 08:39:21 PM 37.1825 -79.4006 205° Southwest 466 536 34,000  Level Washington Center
Fri 08:40:22 PM 37.0717 -79.4758 208° Southwest 466 536 34,000  Level Washington Center
Fri 08:41:19 PM 36.9583 -79.5558 209° Southwest 466 536 34,000 -706 Level Washington Center
Fri 08:42:21 PM 36.8344 -79.6428 209° Southwest 466 536 32,600 -1,954 Descending Washington Center
Fri 08:44:14 PM 36.6250 -79.7864 209° Southwest 471 542 28,300 -2,497 Descending Atlanta Center
Fri 08:45:14 PM 36.5047 -79.8703 209° Southwest 464 534 25,400 -2,650 Descending Atlanta Center
Fri 08:46:14 PM 36.4008 -79.9453 210° Southwest 453 521 23,000 -1,700 Descending Atlanta Center
Fri 08:47:14 PM 36.3053 -80.0144 210° Southwest 425 489 22,000 -500 Descending Atlanta Center
Fri 08:48:14 PM 36.2158 -80.0908 215° Southwest 408 470 22,000 -350 Level Atlanta Center
Fri 08:49:14 PM 36.1347 -80.1592 214° Southwest 395 455 21,300 -1,500 Descending Atlanta Center
Fri 08:50:14 PM 36.0472 -80.2353 215° Southwest 390 449 19,000 -2,300 Descending Atlanta Center
Fri 08:51:14 PM 35.9619 -80.3061 214° Southwest 385 443 16,700 -2,500 Descending Atlanta Center
Fri 08:52:14 PM 35.8744 -80.3844 216° Southwest 374 430 14,000 -2,220 Descending Atlanta Center
Fri 08:52:54 PM 35.8194 -80.4303 214° Southwest 336 387 13,000 -594 Descending Atlanta Center
Fri 08:53:55 PM 35.7525 -80.4897 216° Southwest 292 336 13,000 -738 Level Atlanta Center
Fri 08:54:56 PM 35.7092 -80.5758 238° Southwest 291 335 11,500 -1,554 Descending Atlanta Center
Fri 08:56:14 PM 35.6511 -80.6678 232° Southwest 297 342 9,400 -1,820 Descending Atlanta Center
Fri 08:56:58 PM 35.6069 -80.7336 230° Southwest 281 323 7,800 -1,829 Descending Atlanta Center
Fri 08:57:59 PM 35.5589 -80.8094 232° Southwest 275 316 6,200 -878 Descending Atlanta Center
Fri 08:59:01 PM 35.5106 -80.8778 229° Southwest 271 312 6,000 -732 Descending Atlanta Center
Fri 09:00:02 PM 35.4600 -80.9408 225° Southwest 269 310 4,700 -1,475 Descending Atlanta Center
Fri 09:01:03 PM 35.3858 -80.9717 199° South 256 295 3,000 -1,082 Descending Atlanta Center
Fri 09:02:04 PM 35.3272 -80.9636 174° South 192 221 2,500 -492 Descending Atlanta Center

Login

Don't have an account? Register now (free) for customized features, flight alerts, and more!